sensor_id;sensor_type;location;lat;lon;timestamp;pressure;altitude;pressure_sealevel;temperature;humidity
65157;BME280;52745;49.794;18.258;2022-12-16T00:01:11;-15910.25;;;-1.01;95.34
65157;BME280;52745;49.794;18.258;2022-12-16T00:03:38;-15907.78;;;-1.11;95.34
65157;BME280;52745;49.794;18.258;2022-12-16T00:06:07;-15907.91;;;-1.10;95.97
65157;BME280;52745;49.794;18.258;2022-12-16T00:08:36;-15909.41;;;-1.05;96.07
65157;BME280;52745;49.794;18.258;2022-12-16T00:11:04;-15909.13;;;-1.06;96.00
65157;BME280;52745;49.794;18.258;2022-12-16T00:13:32;-15911.06;;;-0.98;96.29
65157;BME280;52745;49.794;18.258;2022-12-16T00:16:06;-15913.25;;;-0.90;96.56
65157;BME280;52745;49.794;18.258;2022-12-16T00:18:33;-15911.59;;;-0.96;96.39
65157;BME280;52745;49.794;18.258;2022-12-16T00:21:00;-15913.81;;;-0.88;96.39
65157;BME280;52745;49.794;18.258;2022-12-16T00:23:27;-15915.72;;;-0.81;96.01
65157;BME280;52745;49.794;18.258;2022-12-16T00:25:53;-15916.69;;;-0.77;96.33
65157;BME280;52745;49.794;18.258;2022-12-16T00:28:20;-15916.41;;;-0.78;96.52
65157;BME280;52745;49.794;18.258;2022-12-16T00:30:52;-15916.81;;;-0.77;96.33
65157;BME280;52745;49.794;18.258;2022-12-16T00:33:20;-15916.28;;;-0.79;95.88
65157;BME280;52745;49.794;18.258;2022-12-16T00:35:47;-15914.06;;;-0.87;96.17
65157;BME280;52745;49.794;18.258;2022-12-16T00:38:14;-15911.47;;;-0.97;96.44
65157;BME280;52745;49.794;18.258;2022-12-16T00:40:42;-15909.56;;;-1.04;96.44
65157;BME280;52745;49.794;18.258;2022-12-16T00:43:09;-15909.97;;;-1.02;97.03
65157;BME280;52745;49.794;18.258;2022-12-16T00:45:36;-15912.28;;;-0.94;97.25
65157;BME280;52745;49.794;18.258;2022-12-16T00:48:03;-15911.75;;;-0.96;96.77
65157;BME280;52745;49.794;18.258;2022-12-16T00:50:29;-15911.19;;;-0.98;96.77
65157;BME280;52745;49.794;18.258;2022-12-16T00:52:56;-15914.34;;;-0.86;96.69
65157;BME280;52745;49.794;18.258;2022-12-16T00:55:23;-15911.75;;;-0.96;96.76
65157;BME280;52745;49.794;18.258;2022-12-16T00:57:50;-15909.56;;;-1.04;97.00
65157;BME280;52745;49.794;18.258;2022-12-16T01:00:17;-15910.09;;;-1.02;97.23
65157;BME280;52745;49.794;18.258;2022-12-16T01:02:46;-15910.91;;;-0.99;97.34
65157;BME280;52745;49.794;18.258;2022-12-16T01:05:20;-15909.81;;;-1.03;97.12
65157;BME280;52745;49.794;18.258;2022-12-16T01:07:47;-15907.22;;;-1.13;97.41
65157;BME280;52745;49.794;18.258;2022-12-16T01:10:14;-15904.34;;;-1.23;97.52
65157;BME280;52745;49.794;18.258;2022-12-16T01:12:41;-15909.28;;;-1.05;97.58
65157;BME280;52745;49.794;18.258;2022-12-16T01:15:08;-15907.06;;;-1.13;97.00
65157;BME280;52745;49.794;18.258;2022-12-16T01:17:38;-15908.03;;;-1.10;96.87
65157;BME280;52745;49.794;18.258;2022-12-16T01:20:05;-15905.44;;;-1.19;96.84
65157;BME280;52745;49.794;18.258;2022-12-16T01:22:33;-15907.34;;;-1.12;97.40
65157;BME280;52745;49.794;18.258;2022-12-16T01:25:01;-15909.41;;;-1.05;96.56
65157;BME280;52745;49.794;18.258;2022-12-16T01:27:29;-15907.06;;;-1.13;96.68
65157;BME280;52745;49.794;18.258;2022-12-16T01:29:55;-15905.03;;;-1.21;95.99
65157;BME280;52745;49.794;18.258;2022-12-16T01:32:22;-15905.16;;;-1.20;95.78
65157;BME280;52745;49.794;18.258;2022-12-16T01:34:53;-15898.16;;;-1.47;96.33
65157;BME280;52745;49.794;18.258;2022-12-16T01:37:20;-15902.00;;;-1.32;96.49
65157;BME280;52745;49.794;18.258;2022-12-16T01:39:47;-15901.88;;;-1.33;96.47
65157;BME280;52745;49.794;18.258;2022-12-16T01:42:16;-15898.44;;;-1.46;96.51
65157;BME280;52745;49.794;18.258;2022-12-16T01:44:44;-15900.09;;;-1.39;96.79
65157;BME280;52745;49.794;18.258;2022-12-16T01:47:38;-15904.63;;;-1.22;96.32
65157;BME280;52745;49.794;18.258;2022-12-16T01:50:10;-15902.56;;;-1.30;96.03
65157;BME280;52745;49.794;18.258;2022-12-16T01:52:44;-15906.25;;;-1.16;95.70
65157;BME280;52745;49.794;18.258;2022-12-16T01:55:20;-15908.03;;;-1.10;95.65
65157;BME280;52745;49.794;18.258;2022-12-16T01:58:01;-15907.78;;;-1.11;95.95
65157;BME280;52745;49.794;18.258;2022-12-16T02:00:30;-15908.72;;;-1.07;95.70
65157;BME280;52745;49.794;18.258;2022-12-16T02:02:57;-15908.44;;;-1.08;95.31
65157;BME280;52745;49.794;18.258;2022-12-16T02:05:23;-15908.59;;;-1.08;95.22
65157;BME280;52745;49.794;18.258;2022-12-16T02:08:14;-15906.25;;;-1.16;95.29
65157;BME280;52745;49.794;18.258;2022-12-16T02:13:32;-15903.66;;;-1.26;95.87
65157;BME280;52745;49.794;18.258;2022-12-16T02:21:17;-15903.09;;;-1.28;96.14
65157;BME280;52745;49.794;18.258;2022-12-16T02:32:22;-15903.38;;;-1.27;95.33
65157;BME280;52745;49.794;18.258;2022-12-16T02:37:50;-15900.63;;;-1.37;95.71
65157;BME280;52745;49.794;18.258;2022-12-16T02:40:25;-15901.03;;;-1.36;96.10
65157;BME280;52745;49.794;18.258;2022-12-16T02:42:59;-15900.38;;;-1.38;95.63
65157;BME280;52745;49.794;18.258;2022-12-16T02:45:30;-15896.78;;;-1.52;95.64
65157;BME280;52745;49.794;18.258;2022-12-16T02:47:57;-15896.66;;;-1.52;95.80
65157;BME280;52745;49.794;18.258;2022-12-16T02:50:29;-15893.38;;;-1.64;96.26
65157;BME280;52745;49.794;18.258;2022-12-16T02:52:58;-15893.50;;;-1.64;96.70
65157;BME280;52745;49.794;18.258;2022-12-16T02:55:39;-15894.88;;;-1.59;96.45
65157;BME280;52745;49.794;18.258;2022-12-16T03:01:29;-15893.38;;;-1.64;96.76
65157;BME280;52745;49.794;18.258;2022-12-16T03:04:05;-15893.66;;;-1.63;96.64
65157;BME280;52745;49.794;18.258;2022-12-16T03:06:35;-15895.16;;;-1.58;96.94
65157;BME280;52745;49.794;18.258;2022-12-16T03:09:08;-15894.31;;;-1.61;96.73
65157;BME280;52745;49.794;18.258;2022-12-16T03:11:37;-15893.50;;;-1.64;96.67
65157;BME280;52745;49.794;18.258;2022-12-16T03:14:07;-15893.66;;;-1.63;97.01
65157;BME280;52745;49.794;18.258;2022-12-16T03:16:36;-15893.66;;;-1.63;96.61
65157;BME280;52745;49.794;18.258;2022-12-16T03:19:05;-15891.84;;;-1.70;97.08
65157;BME280;52745;49.794;18.258;2022-12-16T03:21:40;-15891.31;;;-1.72;97.74
65157;BME280;52745;49.794;18.258;2022-12-16T03:24:09;-15888.28;;;-1.83;97.58
65157;BME280;52745;49.794;18.258;2022-12-16T03:26:43;-15889.94;;;-1.77;97.80
65157;BME280;52745;49.794;18.258;2022-12-16T03:29:26;-15886.78;;;-1.89;97.97
65157;BME280;52745;49.794;18.258;2022-12-16T03:31:58;-15881.84;;;-2.08;98.68
65157;BME280;52745;49.794;18.258;2022-12-16T03:34:41;-15880.34;;;-2.13;99.02
65157;BME280;52745;49.794;18.258;2022-12-16T03:37:11;-15880.75;;;-2.12;99.63
65157;BME280;52745;49.794;18.258;2022-12-16T03:39:42;-15881.56;;;-2.09;99.45
65157;BME280;52745;49.794;18.258;2022-12-16T03:42:11;-15880.88;;;-2.11;99.55
65157;BME280;52745;49.794;18.258;2022-12-16T03:44:42;-15880.19;;;-2.14;99.65
65157;BME280;52745;49.794;18.258;2022-12-16T03:47:08;-15879.66;;;-2.16;99.35
65157;BME280;52745;49.794;18.258;2022-12-16T03:49:36;-15879.25;;;-2.17;99.73
65157;BME280;52745;49.794;18.258;2022-12-16T03:52:03;-15876.50;;;-2.27;100.00
65157;BME280;52745;49.794;18.258;2022-12-16T03:54:29;-15875.94;;;-2.30;100.00
65157;BME280;52745;49.794;18.258;2022-12-16T03:56:58;-15874.56;;;-2.35;100.00
65157;BME280;52745;49.794;18.258;2022-12-16T03:59:25;-15873.34;;;-2.39;100.00
65157;BME280;52745;49.794;18.258;2022-12-16T04:01:51;-15874.03;;;-2.37;100.00
65157;BME280;52745;49.794;18.258;2022-12-16T04:04:18;-15873.63;;;-2.38;100.00
65157;BME280;52745;49.794;18.258;2022-12-16T04:06:45;-15872.38;;;-2.43;100.00
65157;BME280;52745;49.794;18.258;2022-12-16T04:09:31;-15871.69;;;-2.45;100.00
65157;BME280;52745;49.794;18.258;2022-12-16T04:11:58;-15871.69;;;-2.45;100.00
65157;BME280;52745;49.794;18.258;2022-12-16T04:14:43;-15872.38;;;-2.43;100.00
65157;BME280;52745;49.794;18.258;2022-12-16T04:17:28;-15873.63;;;-2.38;100.00
65157;BME280;52745;49.794;18.258;2022-12-16T04:20:15;-15871.84;;;-2.45;100.00
65157;BME280;52745;49.794;18.258;2022-12-16T04:23:23;-15872.09;;;-2.44;100.00
65157;BME280;52745;49.794;18.258;2022-12-16T04:26:10;-15871.00;;;-2.48;100.00
65157;BME280;52745;49.794;18.258;2022-12-16T04:28:37;-15870.72;;;-2.49;100.00
65157;BME280;52745;49.794;18.258;2022-12-16T04:31:03;-15868.94;;;-2.56;100.00
65157;BME280;52745;49.794;18.258;2022-12-16T04:33:30;-15870.72;;;-2.49;100.00
65157;BME280;52745;49.794;18.258;2022-12-16T04:36:15;-15872.09;;;-2.44;100.00
65157;BME280;52745;49.794;18.258;2022-12-16T04:39:00;-15873.47;;;-2.39;100.00
65157;BME280;52745;49.794;18.258;2022-12-16T04:41:46;-15874.03;;;-2.37;100.00
65157;BME280;52745;49.794;18.258;2022-12-16T04:44:31;-15873.75;;;-2.38;100.00
65157;BME280;52745;49.794;18.258;2022-12-16T04:47:16;-15874.56;;;-2.35;100.00
65157;BME280;52745;49.794;18.258;2022-12-16T04:50:01;-15872.66;;;-2.42;100.00
65157;BME280;52745;49.794;18.258;2022-12-16T04:53:06;-15872.94;;;-2.41;100.00
65157;BME280;52745;49.794;18.258;2022-12-16T04:55:51;-15873.47;;;-2.39;100.00
65157;BME280;52745;49.794;18.258;2022-12-16T04:58:36;-15871.69;;;-2.45;100.00
65157;BME280;52745;49.794;18.258;2022-12-16T05:01:22;-15870.19;;;-2.51;100.00
65157;BME280;52745;49.794;18.258;2022-12-16T05:04:26;-15871.56;;;-2.46;100.00
65157;BME280;52745;49.794;18.258;2022-12-16T05:07:19;-15869.09;;;-2.55;100.00
65157;BME280;52745;49.794;18.258;2022-12-16T05:10:05;-15869.91;;;-2.52;100.00
65157;BME280;52745;49.794;18.258;2022-12-16T05:12:52;-15869.91;;;-2.52;100.00
65157;BME280;52745;49.794;18.258;2022-12-16T05:15:39;-15871.69;;;-2.45;100.00
65157;BME280;52745;49.794;18.258;2022-12-16T05:18:24;-15871.69;;;-2.45;100.00
65157;BME280;52745;49.794;18.258;2022-12-16T05:21:09;-15867.44;;;-2.61;100.00
65157;BME280;52745;49.794;18.258;2022-12-16T05:23:54;-15866.06;;;-2.66;100.00
65157;BME280;52745;49.794;18.258;2022-12-16T05:26:39;-15865.66;;;-2.68;100.00
65157;BME280;52745;49.794;18.258;2022-12-16T05:29:24;-15864.16;;;-2.74;100.00
65157;BME280;52745;49.794;18.258;2022-12-16T05:32:09;-15864.69;;;-2.72;100.00
65157;BME280;52745;49.794;18.258;2022-12-16T05:34:54;-15867.84;;;-2.60;100.00
65157;BME280;52745;49.794;18.258;2022-12-16T05:37:39;-15868.94;;;-2.56;100.00
65157;BME280;52745;49.794;18.258;2022-12-16T05:40:24;-15870.47;;;-2.50;100.00
65157;BME280;52745;49.794;18.258;2022-12-16T05:43:09;-15872.09;;;-2.44;100.00
65157;BME280;52745;49.794;18.258;2022-12-16T05:45:55;-15870.59;;;-2.50;100.00
65157;BME280;52745;49.794;18.258;2022-12-16T05:48:40;-15871.28;;;-2.47;100.00
65157;BME280;52745;49.794;18.258;2022-12-16T05:51:26;-15873.47;;;-2.39;100.00
65157;BME280;52745;49.794;18.258;2022-12-16T05:54:11;-15872.66;;;-2.42;100.00
65157;BME280;52745;49.794;18.258;2022-12-16T05:56:56;-15868.81;;;-2.56;100.00
65157;BME280;52745;49.794;18.258;2022-12-16T05:59:41;-15867.84;;;-2.60;100.00
65157;BME280;52745;49.794;18.258;2022-12-16T06:02:26;-15864.56;;;-2.72;100.00
65157;BME280;52745;49.794;18.258;2022-12-16T06:05:12;-15865.25;;;-2.69;100.00
65157;BME280;52745;49.794;18.258;2022-12-16T06:07:57;-15863.06;;;-2.78;100.00
65157;BME280;52745;49.794;18.258;2022-12-16T06:10:42;-15864.56;;;-2.72;100.00
65157;BME280;52745;49.794;18.258;2022-12-16T06:13:27;-15866.91;;;-2.63;100.00
65157;BME280;52745;49.794;18.258;2022-12-16T06:16:12;-15865.94;;;-2.67;100.00
65157;BME280;52745;49.794;18.258;2022-12-16T06:18:58;-15865.66;;;-2.68;100.00
65157;BME280;52745;49.794;18.258;2022-12-16T06:21:42;-15868.25;;;-2.58;100.00
65157;BME280;52745;49.794;18.258;2022-12-16T06:24:28;-15868.53;;;-2.57;100.00
65157;BME280;52745;49.794;18.258;2022-12-16T06:27:14;-15869.50;;;-2.54;100.00
65157;BME280;52745;49.794;18.258;2022-12-16T06:29:59;-15866.47;;;-2.65;100.00
65157;BME280;52745;49.794;18.258;2022-12-16T06:32:44;-15862.38;;;-2.80;100.00
65157;BME280;52745;49.794;18.258;2022-12-16T06:35:29;-15861.81;;;-2.82;100.00
65157;BME280;52745;49.794;18.258;2022-12-16T06:38:14;-15862.63;;;-2.79;100.00
65157;BME280;52745;49.794;18.258;2022-12-16T06:40:59;-15864.69;;;-2.72;100.00
65157;BME280;52745;49.794;18.258;2022-12-16T06:43:44;-15862.22;;;-2.81;100.00
65157;BME280;52745;49.794;18.258;2022-12-16T06:46:29;-15861.69;;;-2.83;100.00
65157;BME280;52745;49.794;18.258;2022-12-16T06:49:14;-15861.13;;;-2.85;100.00
65157;BME280;52745;49.794;18.258;2022-12-16T06:51:59;-15861.13;;;-2.85;100.00
65157;BME280;52745;49.794;18.258;2022-12-16T06:54:44;-15875.25;;;-2.32;100.00
65157;BME280;52745;49.794;18.258;2022-12-16T06:57:29;-15876.38;;;-2.28;100.00
65157;BME280;52745;49.794;18.258;2022-12-16T07:00:14;-15873.19;;;-2.40;100.00
65157;BME280;52745;49.794;18.258;2022-12-16T07:02:59;-15872.66;;;-2.42;100.00
65157;BME280;52745;49.794;18.258;2022-12-16T07:05:44;-15869.63;;;-2.53;100.00
65157;BME280;52745;49.794;18.258;2022-12-16T07:08:29;-15873.34;;;-2.39;100.00
65157;BME280;52745;49.794;18.258;2022-12-16T07:11:14;-15869.78;;;-2.53;100.00
65157;BME280;52745;49.794;18.258;2022-12-16T07:13:58;-15866.34;;;-2.65;100.00
65157;BME280;52745;49.794;18.258;2022-12-16T07:16:43;-15866.06;;;-2.66;100.00
65157;BME280;52745;49.794;18.258;2022-12-16T07:19:28;-15866.91;;;-2.63;100.00
65157;BME280;52745;49.794;18.258;2022-12-16T07:22:14;-15868.69;;;-2.57;100.00
65157;BME280;52745;49.794;18.258;2022-12-16T07:24:58;-15868.81;;;-2.56;100.00
65157;BME280;52745;49.794;18.258;2022-12-16T07:27:46;-15869.91;;;-2.52;100.00
65157;BME280;52745;49.794;18.258;2022-12-16T07:30:32;-15869.22;;;-2.55;100.00
65157;BME280;52745;49.794;18.258;2022-12-16T07:33:16;-15867.72;;;-2.60;100.00
65157;BME280;52745;49.794;18.258;2022-12-16T07:36:01;-15869.09;;;-2.55;100.00
65157;BME280;52745;49.794;18.258;2022-12-16T07:38:46;-15871.28;;;-2.47;100.00
65157;BME280;52745;49.794;18.258;2022-12-16T07:41:31;-15868.00;;;-2.59;100.00
65157;BME280;52745;49.794;18.258;2022-12-16T07:44:19;-15868.69;;;-2.57;100.00
65157;BME280;52745;49.794;18.258;2022-12-16T07:47:04;-15868.53;;;-2.57;100.00
65157;BME280;52745;49.794;18.258;2022-12-16T07:49:48;-15869.50;;;-2.54;100.00
65157;BME280;52745;49.794;18.258;2022-12-16T07:52:33;-15866.91;;;-2.63;100.00
65157;BME280;52745;49.794;18.258;2022-12-16T07:55:18;-15863.47;;;-2.76;100.00
65157;BME280;52745;49.794;18.258;2022-12-16T07:58:03;-15859.75;;;-2.90;100.00
65157;BME280;52745;49.794;18.258;2022-12-16T08:00:48;-15856.19;;;-3.03;100.00
65157;BME280;52745;49.794;18.258;2022-12-16T08:03:33;-15855.91;;;-3.04;100.00
65157;BME280;52745;49.794;18.258;2022-12-16T08:06:18;-15856.75;;;-3.01;100.00
65157;BME280;52745;49.794;18.258;2022-12-16T08:09:03;-15856.31;;;-3.03;100.00
65157;BME280;52745;49.794;18.258;2022-12-16T08:11:49;-15856.31;;;-3.03;100.00
65157;BME280;52745;49.794;18.258;2022-12-16T08:14:34;-15855.91;;;-3.04;100.00
65157;BME280;52745;49.794;18.258;2022-12-16T08:17:19;-15859.22;;;-2.92;100.00
65157;BME280;52745;49.794;18.258;2022-12-16T08:20:05;-15862.78;;;-2.79;100.00
65157;BME280;52745;49.794;18.258;2022-12-16T08:22:50;-15864.41;;;-2.73;100.00
65157;BME280;52745;49.794;18.258;2022-12-16T08:25:35;-15860.84;;;-2.86;100.00
65157;BME280;52745;49.794;18.258;2022-12-16T08:28:20;-15863.88;;;-2.75;100.00
65157;BME280;52745;49.794;18.258;2022-12-16T08:31:05;-15865.66;;;-2.68;100.00
65157;BME280;52745;49.794;18.258;2022-12-16T08:33:50;-15864.56;;;-2.72;99.89
65157;BME280;52745;49.794;18.258;2022-12-16T08:36:36;-15866.06;;;-2.66;100.00
65157;BME280;52745;49.794;18.258;2022-12-16T08:39:21;-15862.22;;;-2.81;100.00
65157;BME280;52745;49.794;18.258;2022-12-16T08:42:06;-15858.94;;;-2.93;100.00
65157;BME280;52745;49.794;18.258;2022-12-16T08:44:52;-15858.66;;;-2.94;100.00
65157;BME280;52745;49.794;18.258;2022-12-16T08:47:37;-15858.38;;;-2.95;100.00
65157;BME280;52745;49.794;18.258;2022-12-16T08:50:22;-15861.94;;;-2.82;100.00
65157;BME280;52745;49.794;18.258;2022-12-16T08:53:07;-15859.91;;;-2.89;100.00
65157;BME280;52745;49.794;18.258;2022-12-16T08:55:52;-15856.75;;;-3.01;100.00
65157;BME280;52745;49.794;18.258;2022-12-16T08:58:37;-15855.78;;;-3.05;100.00
65157;BME280;52745;49.794;18.258;2022-12-16T09:01:22;-15861.13;;;-2.85;100.00
65157;BME280;52745;49.794;18.258;2022-12-16T09:04:08;-15859.22;;;-2.92;100.00
65157;BME280;52745;49.794;18.258;2022-12-16T09:06:53;-15862.50;;;-2.80;100.00
65157;BME280;52745;49.794;18.258;2022-12-16T09:09:38;-15862.50;;;-2.80;99.65
65157;BME280;52745;49.794;18.258;2022-12-16T09:12:23;-15860.31;;;-2.88;99.85
65157;BME280;52745;49.794;18.258;2022-12-16T09:15:08;-15858.25;;;-2.96;100.00
65157;BME280;52745;49.794;18.258;2022-12-16T09:17:54;-15858.66;;;-2.94;100.00
65157;BME280;52745;49.794;18.258;2022-12-16T09:20:39;-15862.50;;;-2.80;100.00
65157;BME280;52745;49.794;18.258;2022-12-16T09:23:25;-15866.34;;;-2.65;99.85
65157;BME280;52745;49.794;18.258;2022-12-16T09:26:10;-15867.03;;;-2.63;99.18
65157;BME280;52745;49.794;18.258;2022-12-16T09:28:55;-15863.59;;;-2.76;99.15
65157;BME280;52745;49.794;18.258;2022-12-16T09:31:41;-15860.84;;;-2.86;99.20
65157;BME280;52745;49.794;18.258;2022-12-16T09:34:25;-15859.47;;;-2.91;99.68
65157;BME280;52745;49.794;18.258;2022-12-16T09:37:11;-15862.38;;;-2.80;99.58
65157;BME280;52745;49.794;18.258;2022-12-16T09:39:56;-15869.91;;;-2.52;99.12
65157;BME280;52745;49.794;18.258;2022-12-16T09:43:16;-15866.91;;;-2.63;98.41
65157;BME280;52745;49.794;18.258;2022-12-16T09:52:14;-15875.53;;;-2.31;97.67
65157;BME280;52745;49.794;18.258;2022-12-16T09:55:03;-15867.03;;;-2.63;98.03
65157;BME280;52745;49.794;18.258;2022-12-16T09:57:49;-15865.66;;;-2.68;98.25
65157;BME280;52745;49.794;18.258;2022-12-16T10:00:35;-15862.50;;;-2.80;98.84
65157;BME280;52745;49.794;18.258;2022-12-16T10:03:24;-15866.91;;;-2.63;98.51
65157;BME280;52745;49.794;18.258;2022-12-16T10:06:35;-15869.38;;;-2.54;98.43
65157;BME280;52745;49.794;18.258;2022-12-16T10:15:38;-15866.34;;;-2.65;97.14
65157;BME280;52745;49.794;18.258;2022-12-16T10:18:40;-15865.25;;;-2.69;97.04
65157;BME280;52745;49.794;18.258;2022-12-16T10:22:00;-15859.47;;;-2.91;97.29
65157;BME280;52745;49.794;18.258;2022-12-16T10:24:56;-15860.59;;;-2.87;97.63
65157;BME280;52745;49.794;18.258;2022-12-16T10:27:46;-15861.13;;;-2.85;96.57
65157;BME280;52745;49.794;18.258;2022-12-16T10:30:34;-15859.22;;;-2.92;96.95
65157;BME280;52745;49.794;18.258;2022-12-16T10:33:23;-15862.91;;;-2.78;96.57
65157;BME280;52745;49.794;18.258;2022-12-16T10:36:15;-15864.84;;;-2.71;96.50
65157;BME280;52745;49.794;18.258;2022-12-16T10:39:16;-15864.97;;;-2.71;96.27
65157;BME280;52745;49.794;18.258;2022-12-16T10:42:06;-15870.59;;;-2.50;95.27
65157;BME280;52745;49.794;18.258;2022-12-16T10:45:02;-15874.03;;;-2.37;94.29
65157;BME280;52745;49.794;18.258;2022-12-16T10:47:49;-15878.41;;;-2.20;93.81
65157;BME280;52745;49.794;18.258;2022-12-16T10:50:34;-15881.03;;;-2.11;93.54
65157;BME280;52745;49.794;18.258;2022-12-16T10:53:25;-15880.19;;;-2.14;92.35
65157;BME280;52745;49.794;18.258;2022-12-16T10:59:20;-15879.50;;;-2.16;91.43
65157;BME280;52745;49.794;18.258;2022-12-16T11:05:00;-15873.63;;;-2.38;91.68
65157;BME280;52745;49.794;18.258;2022-12-16T11:10:42;-15878.16;;;-2.21;92.18
65157;BME280;52745;49.794;18.258;2022-12-16T11:13:34;-15875.00;;;-2.33;92.42
65157;BME280;52745;49.794;18.258;2022-12-16T11:16:25;-15871.16;;;-2.47;92.55
65157;BME280;52745;49.794;18.258;2022-12-16T11:19:22;-15866.91;;;-2.63;93.17
65157;BME280;52745;49.794;18.258;2022-12-16T11:22:21;-15867.44;;;-2.61;93.87
65157;BME280;52745;49.794;18.258;2022-12-16T11:25:18;-15863.06;;;-2.78;93.88
65157;BME280;52745;49.794;18.258;2022-12-16T11:28:13;-15861.13;;;-2.85;94.10
65157;BME280;52745;49.794;18.258;2022-12-16T11:31:02;-15856.75;;;-3.01;94.63
65157;BME280;52745;49.794;18.258;2022-12-16T11:33:51;-15854.69;;;-3.09;95.35
65157;BME280;52745;49.794;18.258;2022-12-16T11:36:42;-15853.44;;;-3.14;94.92
65157;BME280;52745;49.794;18.258;2022-12-16T11:39:29;-15859.22;;;-2.92;95.44
65157;BME280;52745;49.794;18.258;2022-12-16T11:42:23;-15861.41;;;-2.84;94.15
65157;BME280;52745;49.794;18.258;2022-12-16T11:45:15;-15862.09;;;-2.81;93.51
65157;BME280;52745;49.794;18.258;2022-12-16T11:48:11;-15859.91;;;-2.89;93.09
65157;BME280;52745;49.794;18.258;2022-12-16T11:51:01;-15857.56;;;-2.98;93.29
65157;BME280;52745;49.794;18.258;2022-12-16T11:53:54;-15855.91;;;-3.04;94.49
65157;BME280;52745;49.794;18.258;2022-12-16T11:56:44;-15854.81;;;-3.08;94.40
65157;BME280;52745;49.794;18.258;2022-12-16T11:59:38;-15854.13;;;-3.11;94.57
65157;BME280;52745;49.794;18.258;2022-12-16T12:02:33;-15855.09;;;-3.07;94.86
65157;BME280;52745;49.794;18.258;2022-12-16T12:05:30;-15854.81;;;-3.08;94.30
65157;BME280;52745;49.794;18.258;2022-12-16T12:11:31;-15852.47;;;-3.17;95.33
65157;BME280;52745;49.794;18.258;2022-12-16T12:15:00;-15855.66;;;-3.05;94.27
65157;BME280;52745;49.794;18.258;2022-12-16T12:18:09;-15857.00;;;-3.00;94.54
65157;BME280;52745;49.794;18.258;2022-12-16T12:21:26;-15862.91;;;-2.78;94.03
65157;BME280;52745;49.794;18.258;2022-12-16T12:27:49;-15854.00;;;-3.12;93.52
65157;BME280;52745;49.794;18.258;2022-12-16T12:30:50;-15857.28;;;-2.99;93.54
65157;BME280;52745;49.794;18.258;2022-12-16T12:33:59;-15857.28;;;-2.99;93.34
65157;BME280;52745;49.794;18.258;2022-12-16T12:37:02;-15861.13;;;-2.85;93.67
65157;BME280;52745;49.794;18.258;2022-12-16T12:40:08;-15857.84;;;-2.97;93.48
65157;BME280;52745;49.794;18.258;2022-12-16T12:43:09;-15855.38;;;-3.06;93.49
65157;BME280;52745;49.794;18.258;2022-12-16T12:46:35;-15858.13;;;-2.96;93.95
65157;BME280;52745;49.794;18.258;2022-12-16T12:49:38;-15859.34;;;-2.92;93.00
65157;BME280;52745;49.794;18.258;2022-12-16T12:52:53;-15859.75;;;-2.90;92.90
65157;BME280;52745;49.794;18.258;2022-12-16T12:58:33;-15856.75;;;-3.01;93.03
65157;BME280;52745;49.794;18.258;2022-12-16T13:01:20;-15857.84;;;-2.97;93.91
65157;BME280;52745;49.794;18.258;2022-12-16T13:04:13;-15860.59;;;-2.87;93.41
65157;BME280;52745;49.794;18.258;2022-12-16T13:07:01;-15855.38;;;-3.06;92.83
65157;BME280;52745;49.794;18.258;2022-12-16T13:16:02;-15853.72;;;-3.13;95.48
65157;BME280;52745;49.794;18.258;2022-12-16T13:25:54;-15855.09;;;-3.07;94.40
65157;BME280;52745;49.794;18.258;2022-12-16T13:29:07;-15854.94;;;-3.08;94.69
65157;BME280;52745;49.794;18.258;2022-12-16T13:35:13;-15850.56;;;-3.24;95.01
65157;BME280;52745;49.794;18.258;2022-12-16T13:38:05;-15848.22;;;-3.33;94.91
65157;BME280;52745;49.794;18.258;2022-12-16T13:41:03;-15847.13;;;-3.37;95.57
65157;BME280;52745;49.794;18.258;2022-12-16T13:43:56;-15843.97;;;-3.49;96.10
65157;BME280;52745;49.794;18.258;2022-12-16T13:46:52;-15845.34;;;-3.44;96.51
65157;BME280;52745;49.794;18.258;2022-12-16T13:49:49;-15843.97;;;-3.49;96.39
65157;BME280;52745;49.794;18.258;2022-12-16T13:52:56;-15845.47;;;-3.43;96.21
65157;BME280;52745;49.794;18.258;2022-12-16T13:55:52;-15845.22;;;-3.44;96.19
65157;BME280;52745;49.794;18.258;2022-12-16T13:58:42;-15842.19;;;-3.56;96.23
65157;BME280;52745;49.794;18.258;2022-12-16T14:01:35;-15847.00;;;-3.38;96.03
65157;BME280;52745;49.794;18.258;2022-12-16T14:04:32;-15847.00;;;-3.38;95.80
65157;BME280;52745;49.794;18.258;2022-12-16T14:07:20;-15847.00;;;-3.38;95.80
65157;BME280;52745;49.794;18.258;2022-12-16T14:10:28;-15845.34;;;-3.44;95.43
65157;BME280;52745;49.794;18.258;2022-12-16T14:13:21;-15848.50;;;-3.32;95.36
65157;BME280;52745;49.794;18.258;2022-12-16T14:22:58;-15849.31;;;-3.29;94.39
65157;BME280;52745;49.794;18.258;2022-12-16T14:25:55;-15850.44;;;-3.25;94.27
65157;BME280;52745;49.794;18.258;2022-12-16T14:28:47;-15849.59;;;-3.28;94.05
65157;BME280;52745;49.794;18.258;2022-12-16T14:31:38;-15847.97;;;-3.34;94.12
65157;BME280;52745;49.794;18.258;2022-12-16T14:34:29;-15849.19;;;-3.29;94.43
65157;BME280;52745;49.794;18.258;2022-12-16T14:40:18;-15854.00;;;-3.12;94.24
65157;BME280;52745;49.794;18.258;2022-12-16T14:43:11;-15850.97;;;-3.23;93.95
65157;BME280;52745;49.794;18.258;2022-12-16T14:45:57;-15850.69;;;-3.24;94.05
65157;BME280;52745;49.794;18.258;2022-12-16T14:48:45;-15849.75;;;-3.27;94.35
65157;BME280;52745;49.794;18.258;2022-12-16T14:51:32;-15850.84;;;-3.23;94.38
65157;BME280;52745;49.794;18.258;2022-12-16T14:54:37;-15850.69;;;-3.24;94.44
65157;BME280;52745;49.794;18.258;2022-12-16T14:57:25;-15851.81;;;-3.20;94.70
65157;BME280;52745;49.794;18.258;2022-12-16T15:00:15;-15850.97;;;-3.23;94.39
65157;BME280;52745;49.794;18.258;2022-12-16T15:03:14;-15847.13;;;-3.37;94.83
65157;BME280;52745;49.794;18.258;2022-12-16T15:06:06;-15845.75;;;-3.42;95.54
65157;BME280;52745;49.794;18.258;2022-12-16T15:08:59;-15848.22;;;-3.33;95.22
65157;BME280;52745;49.794;18.258;2022-12-16T15:11:46;-15848.66;;;-3.31;95.16
65157;BME280;52745;49.794;18.258;2022-12-16T15:14:34;-15848.50;;;-3.32;95.46
65157;BME280;52745;49.794;18.258;2022-12-16T15:17:26;-15849.06;;;-3.30;95.46
65157;BME280;52745;49.794;18.258;2022-12-16T15:20:25;-15846.19;;;-3.41;95.24